createdAt,value
2023-05-20T00:02:20.912Z,99032.28
2023-05-20T00:04:47.485Z,99035.56
2023-05-20T00:07:14.085Z,99033.41
2023-05-20T00:09:40.682Z,99025.50
2023-05-20T00:12:07.491Z,99033.13
2023-05-20T00:14:34.039Z,99023.25
2023-05-20T00:17:00.700Z,99024.66
2023-05-20T00:19:27.375Z,99024.56
2023-05-20T00:21:53.985Z,99018.94
2023-05-20T00:24:20.536Z,99020.06
2023-05-20T00:26:47.017Z,99018.47
2023-05-20T00:29:13.524Z,99014.31
2023-05-20T00:31:40.105Z,99018.19
2023-05-20T00:34:06.713Z,99020.53
2023-05-20T00:36:33.528Z,99020.53
2023-05-20T00:39:00.073Z,99013.00
2023-05-20T00:41:27.144Z,99014.06
2023-05-20T00:43:59.550Z,99013.00
2023-05-20T00:46:28.229Z,99007.00
2023-05-20T00:49:00.206Z,99004.72
2023-05-20T00:51:26.846Z,99007.75
2023-05-20T00:53:54.801Z,99003.91
2023-05-20T00:56:22.106Z,99003.69
2023-05-20T00:58:50.721Z,99006.78
2023-05-20T01:01:17.320Z,99006.06
2023-05-20T01:03:49.859Z,99004.63
2023-05-20T01:06:16.485Z,99005.00
2023-05-20T01:08:53.140Z,98995.97
2023-05-20T01:11:29.013Z,98995.53
2023-05-20T01:14:06.535Z,98993.66
2023-05-20T01:16:36.274Z,98996.50
2023-05-20T01:19:15.817Z,98981.56
2023-05-20T01:21:43.791Z,98984.53
2023-05-20T01:24:11.525Z,98991.78
2023-05-20T01:26:38.416Z,98988.22
2023-05-20T01:29:05.481Z,98985.44
2023-05-20T01:31:37.321Z,98978.78
2023-05-20T01:34:05.436Z,98976.38
2023-05-20T01:36:33.763Z,98969.13
2023-05-20T01:39:11.161Z,98973.19
2023-05-20T01:41:39.176Z,98971.88
2023-05-20T01:44:05.891Z,98972.81
2023-05-20T01:46:35.995Z,98980.34
2023-05-20T01:49:02.579Z,98971.84
2023-05-20T01:51:33.632Z,98974.84
2023-05-20T01:54:04.007Z,98965.84
2023-05-20T01:56:32.792Z,98969.38
2023-05-20T01:58:59.277Z,98967.69
2023-05-20T02:01:27.759Z,98963.19
2023-05-20T02:03:54.368Z,98966.34
2023-05-20T02:06:20.900Z,98963.72
2023-05-20T02:08:47.495Z,98966.84
2023-05-20T02:11:14.045Z,98965.44
2023-05-20T02:13:40.957Z,98964.31
2023-05-20T02:16:07.680Z,98954.94
2023-05-20T02:18:35.232Z,98955.41
2023-05-20T02:21:04.054Z,98954.19
2023-05-20T02:23:36.804Z,98957.22
2023-05-20T02:26:03.459Z,98951.47
2023-05-20T02:28:30.093Z,98949.69
2023-05-20T02:30:56.576Z,98951.66
2023-05-20T02:33:39.474Z,98945.72
2023-05-20T02:36:29.771Z,98946.75
2023-05-20T02:38:56.789Z,98945.31
2023-05-20T02:41:26.351Z,98945.03
2023-05-20T02:44:00.479Z,98946.63
2023-05-20T02:46:27.074Z,98945.13
2023-05-20T02:48:56.531Z,98947.41
2023-05-20T02:51:33.229Z,98943.72
2023-05-20T02:53:59.641Z,98948.81
2023-05-20T02:56:27.030Z,98949.78
2023-05-20T02:58:53.548Z,98953.19
2023-05-20T03:01:20.218Z,98937.56
2023-05-20T03:03:55.542Z,98937.19
2023-05-20T03:06:27.480Z,98941.16
2023-05-20T03:08:53.958Z,98933.34
2023-05-20T03:11:21.779Z,98940.28
2023-05-20T03:13:48.286Z,98937.25
2023-05-20T03:16:14.955Z,98935.91
2023-05-20T03:18:51.961Z,98943.00
2023-05-20T03:21:18.554Z,98935.69
2023-05-20T03:23:45.090Z,98931.59
2023-05-20T03:26:11.727Z,98932.53
2023-05-20T03:28:38.234Z,98930.28
2023-05-20T03:31:14.649Z,98935.94
2023-05-20T03:33:42.370Z,98937.56
2023-05-20T03:36:08.955Z,98928.59
2023-05-20T03:38:45.416Z,98921.84
2023-05-20T03:41:11.983Z,98933.13
2023-05-20T03:43:38.541Z,98929.94
2023-05-20T03:46:07.788Z,98934.63
2023-05-20T03:48:35.590Z,98933.72
2023-05-20T03:51:02.495Z,98936.16
2023-05-20T03:53:29.189Z,98929.47
2023-05-20T03:55:55.712Z,98936.16
2023-05-20T03:58:22.249Z,98924.09
2023-05-20T04:00:49.271Z,98928.66
2023-05-20T04:03:15.952Z,98924.50
2023-05-20T04:05:42.627Z,98930.13
2023-05-20T04:08:09.891Z,98934.56
2023-05-20T04:10:44.680Z,98940.00
2023-05-20T04:13:11.718Z,98939.25
2023-05-20T04:15:38.989Z,98929.81
2023-05-20T04:18:06.264Z,98917.13
2023-05-20T04:20:36.013Z,98915.78
2023-05-20T04:23:02.588Z,98920.13
2023-05-20T04:25:29.160Z,98919.91
2023-05-20T04:27:57.454Z,98930.72
2023-05-20T04:30:24.049Z,98932.75
2023-05-20T04:32:51.102Z,98925.41
2023-05-20T04:35:18.265Z,98936.19
2023-05-20T04:37:53.101Z,98926.94
2023-05-20T04:40:20.907Z,98928.81
2023-05-20T04:42:50.061Z,98922.28
2023-05-20T04:45:25.805Z,98918.06
2023-05-20T04:47:53.276Z,98929.53
2023-05-20T04:50:21.160Z,98926.47
2023-05-20T04:52:50.598Z,98919.41
2023-05-20T04:55:17.339Z,98922.09
2023-05-20T04:57:44.023Z,98927.47
2023-05-20T05:00:14.831Z,98926.84
2023-05-20T05:02:41.477Z,98923.69
2023-05-20T05:05:08.667Z,98922.84
2023-05-20T05:07:38.303Z,98916.94
2023-05-20T05:10:10.555Z,98916.84
2023-05-20T05:12:37.072Z,98915.44
2023-05-20T05:15:04.204Z,98910.59
2023-05-20T05:17:30.941Z,98906.34
2023-05-20T05:19:57.568Z,98905.38
2023-05-20T05:22:24.112Z,98899.94
2023-05-20T05:24:50.818Z,98900.34
2023-05-20T05:27:17.346Z,98906.44
2023-05-20T05:29:46.584Z,98902.28
2023-05-20T05:32:13.161Z,98897.03
2023-05-20T05:34:45.532Z,98889.50
2023-05-20T05:37:12.151Z,98892.78
2023-05-20T05:39:46.768Z,98885.56
2023-05-20T05:42:13.501Z,98888.53
2023-05-20T05:44:51.974Z,98895.16
2023-05-20T05:47:18.921Z,98896.25
2023-05-20T05:49:45.641Z,98895.34
2023-05-20T05:52:12.821Z,98890.81
2023-05-20T05:54:39.310Z,98888.88
2023-05-20T05:57:06.563Z,98886.63
2023-05-20T05:59:33.226Z,98891.38
2023-05-20T06:01:59.816Z,98886.78
2023-05-20T06:04:26.462Z,98888.69
2023-05-20T06:06:53.078Z,98886.31
2023-05-20T06:09:19.614Z,98890.16
2023-05-20T06:11:46.269Z,98881.22
2023-05-20T06:14:18.703Z,98886.88
2023-05-20T06:16:45.361Z,98881.41
2023-05-20T06:19:12.010Z,98875.94
2023-05-20T06:21:41.801Z,98875.72
2023-05-20T06:24:08.333Z,98880.13
2023-05-20T06:26:34.836Z,98875.38
2023-05-20T06:29:01.333Z,98869.66
2023-05-20T06:31:28.056Z,98865.78
2023-05-20T06:33:54.640Z,98865.84
2023-05-20T06:36:21.659Z,98874.31
2023-05-20T06:38:48.190Z,98866.53
2023-05-20T06:41:14.800Z,98865.47
2023-05-20T06:43:41.400Z,98862.16
2023-05-20T06:46:08.017Z,98860.09
2023-05-20T06:48:34.518Z,98856.50
2023-05-20T06:51:01.022Z,98858.50
2023-05-20T06:53:43.970Z,98859.13
2023-05-20T06:56:12.101Z,98858.34
2023-05-20T06:58:38.692Z,98857.47
2023-05-20T07:01:05.490Z,98850.94
2023-05-20T07:03:35.230Z,98853.72
2023-05-20T07:06:01.912Z,98856.81
2023-05-20T07:08:28.449Z,98844.31
2023-05-20T07:10:58.052Z,98851.78
2023-05-20T07:13:47.582Z,98843.38
2023-05-20T07:16:14.131Z,98844.31
2023-05-20T07:18:41.079Z,98837.41
2023-05-20T07:21:07.718Z,98840.03
2023-05-20T07:23:34.270Z,98843.28
2023-05-20T07:26:00.845Z,98849.84
2023-05-20T07:28:27.369Z,98845.78
2023-05-20T07:30:56.023Z,98840.00
2023-05-20T07:33:22.822Z,98841.59
2023-05-20T07:35:49.412Z,98836.59
2023-05-20T07:38:16.292Z,98833.94
2023-05-20T07:40:42.811Z,98840.66
2023-05-20T07:43:09.633Z,98837.16
2023-05-20T07:45:39.572Z,98830.56
2023-05-20T07:48:08.662Z,98832.28
2023-05-20T07:50:35.933Z,98831.56
2023-05-20T07:53:06.647Z,98829.19
2023-05-20T07:55:36.924Z,98831.69
2023-05-20T07:58:04.486Z,98836.88
2023-05-20T08:00:31.403Z,98830.03
2023-05-20T08:02:58.077Z,98820.78
2023-05-20T08:05:24.826Z,98828.31
2023-05-20T08:08:16.023Z,98830.44
2023-05-20T08:10:42.648Z,98829.13
2023-05-20T08:13:09.163Z,98823.91
2023-05-20T08:15:36.750Z,98828.56
2023-05-20T08:18:03.434Z,98827.25
2023-05-20T08:20:30.047Z,98819.94
2023-05-20T08:23:05.409Z,98826.06
2023-05-20T08:25:32.024Z,98832.28
2023-05-20T08:28:03.902Z,98829.56
2023-05-20T08:30:30.596Z,98824.72
2023-05-20T08:32:57.410Z,98820.25
2023-05-20T08:35:24.812Z,98831.22
2023-05-20T08:37:53.894Z,98826.38
2023-05-20T08:40:22.219Z,98826.69
2023-05-20T08:42:52.828Z,98833.31
2023-05-20T08:45:24.016Z,98831.44
2023-05-20T08:47:50.771Z,98828.31
2023-05-20T08:50:17.409Z,98830.63
2023-05-20T08:52:46.633Z,98836.00
2023-05-20T08:55:24.267Z,98832.53
2023-05-20T08:57:51.631Z,98836.44
2023-05-20T09:00:19.398Z,98828.06
2023-05-20T09:02:46.249Z,98830.97
2023-05-20T09:05:13.385Z,98829.31
2023-05-20T09:07:40.131Z,98835.09
2023-05-20T09:10:07.305Z,98826.81
2023-05-20T09:12:33.865Z,98828.38
2023-05-20T09:15:00.579Z,98826.72
2023-05-20T09:17:27.822Z,98823.50
2023-05-20T09:19:54.555Z,98823.59
2023-05-20T09:22:29.485Z,98825.41
2023-05-20T09:24:56.115Z,98819.44
2023-05-20T09:27:23.944Z,98809.31
2023-05-20T09:29:51.849Z,98808.94
2023-05-20T09:32:23.932Z,98818.88
2023-05-20T09:34:50.554Z,98814.66
2023-05-20T09:37:21.912Z,98816.53
2023-05-20T09:40:07.187Z,98821.78
2023-05-20T09:43:02.633Z,98814.00
2023-05-20T09:45:30.403Z,98813.78
2023-05-20T09:47:57.969Z,98813.75
2023-05-20T09:50:25.731Z,98825.63
2023-05-20T09:52:53.782Z,98820.84
2023-05-20T09:55:24.632Z,98822.81
2023-05-20T09:57:53.210Z,98812.13
2023-05-20T10:00:21.555Z,98823.25
2023-05-20T10:02:53.347Z,98816.28
2023-05-20T10:05:37.960Z,98812.09
2023-05-20T10:08:28.705Z,98824.81
2023-05-20T10:11:28.159Z,98819.38
2023-05-20T10:14:26.236Z,98818.03
2023-05-20T10:17:21.419Z,98816.09
2023-05-20T10:19:49.857Z,98820.81
2023-05-20T10:22:31.374Z,98813.47
2023-05-20T10:25:00.456Z,98805.66
2023-05-20T10:27:27.257Z,98805.28
2023-05-20T10:29:57.748Z,98803.19
2023-05-20T10:32:33.255Z,98805.44
2023-05-20T10:35:04.897Z,98803.13
2023-05-20T10:37:48.047Z,98801.69
2023-05-20T10:40:18.459Z,98803.53
2023-05-20T10:42:46.000Z,98813.41
2023-05-20T10:45:52.480Z,98805.22
2023-05-20T10:48:33.157Z,98791.50
2023-05-20T10:51:04.844Z,98779.81
2023-05-20T10:53:46.227Z,98779.31
2023-05-20T10:56:21.817Z,98776.81
2023-05-20T10:58:49.516Z,98789.72
2023-05-20T11:01:17.164Z,98792.59
2023-05-20T11:03:46.971Z,98789.75
2023-05-20T11:06:18.774Z,98787.59
2023-05-20T11:08:46.378Z,98789.59
2023-05-20T11:11:15.277Z,98780.69
2023-05-20T11:13:42.081Z,98782.22
2023-05-20T11:16:09.743Z,98776.38
2023-05-20T11:18:36.498Z,98779.88
2023-05-20T11:21:03.273Z,98775.00
2023-05-20T11:23:30.554Z,98778.19
2023-05-20T11:25:58.322Z,98780.84
2023-05-20T11:28:25.525Z,98773.59
2023-05-20T11:30:53.276Z,98778.34
2023-05-20T11:33:20.198Z,98765.78
2023-05-20T11:35:49.969Z,98769.28
2023-05-20T11:38:21.636Z,98772.09
2023-05-20T11:40:54.601Z,98762.06
2023-05-20T11:43:23.719Z,98756.47
2023-05-20T11:45:59.297Z,98757.47
2023-05-20T11:48:28.797Z,98758.06
2023-05-20T11:50:56.810Z,98759.88
2023-05-20T11:53:24.550Z,98757.16
2023-05-20T11:55:57.540Z,98761.53
2023-05-20T11:58:30.297Z,98756.25
2023-05-20T12:01:05.689Z,98754.06
2023-05-20T12:03:42.687Z,98751.78
2023-05-20T12:06:15.690Z,98754.94
2023-05-20T12:08:42.235Z,98752.56
2023-05-20T12:11:08.762Z,98758.31
2023-05-20T12:13:35.686Z,98752.53
2023-05-20T12:16:02.521Z,98758.94
2023-05-20T12:18:29.180Z,98765.47
2023-05-20T12:20:55.748Z,98766.81
2023-05-20T12:23:22.344Z,98758.06
2023-05-20T12:25:49.874Z,98753.69
2023-05-20T12:28:17.642Z,98763.13
2023-05-20T12:30:44.229Z,98756.28
2023-05-20T12:33:10.915Z,98749.53
2023-05-20T12:35:43.465Z,98753.06
2023-05-20T12:38:10.668Z,98750.72
2023-05-20T12:40:39.744Z,98739.00
2023-05-20T12:43:11.131Z,98754.56
2023-05-20T12:45:37.736Z,98746.69
2023-05-20T12:48:06.154Z,98741.00
2023-05-20T12:50:32.784Z,98739.19
2023-05-20T12:52:59.514Z,98733.00
2023-05-20T12:55:33.108Z,98744.03
2023-05-20T12:57:59.665Z,98739.50
2023-05-20T13:00:26.306Z,98741.03
2023-05-20T13:02:53.320Z,98747.72
2023-05-20T13:05:20.590Z,98736.34
2023-05-20T13:07:47.170Z,98725.28
2023-05-20T13:10:14.084Z,98722.09
2023-05-20T13:12:45.741Z,98731.97
2023-05-20T13:15:14.608Z,98733.00
2023-05-20T13:17:42.710Z,98722.63
2023-05-20T13:20:10.982Z,98727.28
2023-05-20T13:22:38.058Z,98722.63
2023-05-20T13:25:05.566Z,98713.75
2023-05-20T13:27:32.178Z,98716.41
2023-05-20T13:29:58.865Z,98707.22
2023-05-20T13:32:25.476Z,98709.88
2023-05-20T13:34:54.870Z,98711.88
2023-05-20T13:37:21.488Z,98711.56
2023-05-20T13:39:48.101Z,98707.72
2023-05-20T13:42:16.685Z,98704.88
2023-05-20T13:44:43.187Z,98693.78
2023-05-20T13:47:09.831Z,98693.16
2023-05-20T13:49:36.321Z,98692.97
2023-05-20T13:52:03.024Z,98684.09
2023-05-20T13:54:29.567Z,98680.25
2023-05-20T13:56:56.560Z,98684.78
2023-05-20T13:59:23.063Z,98678.75
2023-05-20T14:01:49.708Z,98669.41
2023-05-20T14:04:19.245Z,98676.25
2023-05-20T14:06:53.392Z,98674.06
2023-05-20T14:09:19.938Z,98673.72
2023-05-20T14:11:46.476Z,98666.53
2023-05-20T14:14:13.030Z,98670.03
2023-05-20T14:16:40.289Z,98668.00
2023-05-20T14:19:08.926Z,98667.84
2023-05-20T14:21:35.786Z,98664.50
2023-05-20T14:24:02.449Z,98669.03
2023-05-20T14:26:29.099Z,98657.28
2023-05-20T14:28:55.801Z,98665.34
2023-05-20T14:31:30.957Z,98664.38
2023-05-20T14:34:03.200Z,98655.00
2023-05-20T14:36:29.749Z,98660.00
2023-05-20T14:38:56.436Z,98654.31
2023-05-20T14:41:23.103Z,98654.97
2023-05-20T14:43:49.596Z,98655.31
2023-05-20T14:46:17.497Z,98652.63
2023-05-20T14:48:44.120Z,98647.97
2023-05-20T14:51:16.414Z,98645.94
2023-05-20T14:53:42.970Z,98658.00
2023-05-20T14:56:09.585Z,98656.34
2023-05-20T14:58:36.173Z,98662.03
2023-05-20T15:01:02.741Z,98646.66
2023-05-20T15:03:29.869Z,98645.81
2023-05-20T15:05:56.625Z,98645.66
2023-05-20T15:08:23.183Z,98637.59
2023-05-20T15:10:50.574Z,98640.59
2023-05-20T15:13:17.254Z,98644.25
2023-05-20T15:15:43.983Z,98647.06
2023-05-20T15:18:11.693Z,98648.59
2023-05-20T15:20:38.360Z,98643.59
2023-05-20T15:23:08.027Z,98641.28
2023-05-20T15:25:34.793Z,98631.22
2023-05-20T15:28:01.596Z,98634.00
2023-05-20T15:30:28.160Z,98634.41
2023-05-20T15:32:54.889Z,98640.97
2023-05-20T15:35:21.487Z,98630.91
2023-05-20T15:37:48.565Z,98633.56
2023-05-20T15:40:17.141Z,98624.56
2023-05-20T15:42:47.390Z,98628.56
2023-05-20T15:45:13.983Z,98627.91
2023-05-20T15:47:41.055Z,98637.41
2023-05-20T15:50:08.692Z,98630.13
2023-05-20T15:52:35.642Z,98641.81
2023-05-20T15:55:11.342Z,98621.03
2023-05-20T15:57:37.918Z,98620.63
2023-05-20T16:00:11.778Z,98624.22
2023-05-20T16:02:40.319Z,98615.78
2023-05-20T16:05:07.469Z,98610.59
2023-05-20T16:07:34.005Z,98617.13
2023-05-20T16:10:00.691Z,98601.09
2023-05-20T16:12:27.246Z,98596.09
2023-05-20T16:14:54.174Z,98599.09
2023-05-20T16:17:21.692Z,98592.63
2023-05-20T16:19:48.655Z,98586.22
2023-05-20T16:22:16.315Z,98597.63
2023-05-20T16:24:56.746Z,98596.31
2023-05-20T16:27:23.316Z,98598.22
2023-05-20T16:29:51.908Z,98606.91
2023-05-20T16:32:21.664Z,98611.56
2023-05-20T16:34:57.252Z,98620.81
2023-05-20T16:37:23.758Z,98622.88
2023-05-20T16:39:53.413Z,98618.56
2023-05-20T16:42:19.949Z,98617.88
2023-05-20T16:45:06.812Z,98625.25
2023-05-20T16:47:34.074Z,98626.59
2023-05-20T16:50:00.744Z,98631.56
2023-05-20T16:52:29.675Z,98619.53
2023-05-20T16:54:58.476Z,98609.66
2023-05-20T16:57:24.985Z,98600.69
2023-05-20T16:59:51.739Z,98593.69
2023-05-20T17:02:18.295Z,98604.75
2023-05-20T17:04:44.966Z,98610.31
2023-05-20T17:07:11.610Z,98611.84
2023-05-20T17:09:38.112Z,98618.53
2023-05-20T17:12:05.406Z,98615.16
2023-05-20T17:14:32.644Z,98612.13
2023-05-20T17:16:59.313Z,98619.00
2023-05-20T17:19:32.697Z,98621.13
2023-05-20T17:21:59.262Z,98619.09
2023-05-20T17:24:25.921Z,98623.81
2023-05-20T17:26:52.514Z,98626.31
2023-05-20T17:29:19.127Z,98629.00
2023-05-20T17:31:45.815Z,98627.34
2023-05-20T17:34:12.633Z,98629.50
2023-05-20T17:36:39.317Z,98626.19
2023-05-20T17:39:06.049Z,98625.69
2023-05-20T17:41:32.597Z,98620.53
2023-05-20T17:43:59.145Z,98621.19
2023-05-20T17:46:25.835Z,98620.84
2023-05-20T17:48:52.387Z,98620.03
2023-05-20T17:51:19.306Z,98619.53
2023-05-20T17:53:45.989Z,98620.88
2023-05-20T17:56:16.141Z,98625.50
2023-05-20T17:58:44.937Z,98616.50
2023-05-20T18:01:11.564Z,98619.00
2023-05-20T18:03:39.890Z,98624.03
2023-05-20T18:06:06.638Z,98623.50
2023-05-20T18:08:33.806Z,98625.66
2023-05-20T18:11:07.034Z,98631.84
2023-05-20T18:13:33.556Z,98636.19
2023-05-20T18:16:09.111Z,98639.19
2023-05-20T18:18:35.798Z,98644.50
2023-05-20T18:21:05.810Z,98641.78
2023-05-20T18:23:37.955Z,98650.31
2023-05-20T18:26:06.935Z,98633.91
2023-05-20T18:28:33.655Z,98643.56
2023-05-20T18:31:00.261Z,98647.84
2023-05-20T18:33:27.025Z,98650.91
2023-05-20T18:35:58.743Z,98652.97
2023-05-20T18:38:25.771Z,98656.94
2023-05-20T18:40:52.428Z,98649.94
2023-05-20T18:43:27.955Z,98649.75
2023-05-20T18:45:57.292Z,98652.50
2023-05-20T18:48:27.422Z,98647.75
2023-05-20T18:50:56.049Z,98644.91
2023-05-20T18:53:23.556Z,98640.34
2023-05-20T18:55:50.642Z,98636.25
2023-05-20T18:58:17.241Z,98630.84
2023-05-20T19:00:43.808Z,98631.53
2023-05-20T19:03:10.376Z,98635.34
2023-05-20T19:05:37.141Z,98632.03
2023-05-20T19:08:05.770Z,98627.53
2023-05-20T19:10:33.317Z,98637.44
2023-05-20T19:13:00.463Z,98632.97
2023-05-20T19:15:31.115Z,98641.13
2023-05-20T19:17:57.717Z,98648.75
2023-05-20T19:20:25.505Z,98647.56
2023-05-20T19:22:59.382Z,98649.72
2023-05-20T19:25:28.305Z,98649.97
2023-05-20T19:27:54.874Z,98658.16
2023-05-20T19:30:21.445Z,98657.38
2023-05-20T19:32:48.071Z,98662.00
2023-05-20T19:35:14.892Z,98664.25
2023-05-20T19:37:41.475Z,98669.47
2023-05-20T19:40:09.098Z,98668.91
2023-05-20T19:42:35.716Z,98666.00
2023-05-20T19:45:02.366Z,98672.03
2023-05-20T19:47:28.966Z,98672.91
2023-05-20T19:49:55.459Z,98669.13
2023-05-20T19:52:22.353Z,98668.44
2023-05-20T19:54:48.951Z,98651.38
2023-05-20T19:57:15.613Z,98658.19
2023-05-20T19:59:42.227Z,98654.44
2023-05-20T20:02:08.895Z,98657.78
2023-05-20T20:04:36.025Z,98650.81
2023-05-20T20:07:03.449Z,98646.59
2023-05-20T20:09:30.146Z,98657.25
2023-05-20T20:11:59.336Z,98652.56
2023-05-20T20:14:25.919Z,98647.97
2023-05-20T20:16:57.101Z,98656.84
2023-05-20T20:19:26.078Z,98642.00
2023-05-20T20:21:53.371Z,98649.25
2023-05-20T20:24:20.314Z,98656.84
2023-05-20T20:26:47.592Z,98645.72
2023-05-20T20:29:15.061Z,98643.72
2023-05-20T20:31:41.917Z,98647.38
2023-05-20T20:34:08.787Z,98650.13
2023-05-20T20:36:35.339Z,98649.28
2023-05-20T20:39:04.626Z,98652.03
2023-05-20T20:41:32.338Z,98648.66
2023-05-20T20:44:03.343Z,98653.69
2023-05-20T20:46:29.867Z,98650.19
2023-05-20T20:48:56.513Z,98644.72
2023-05-20T20:51:23.098Z,98649.28
2023-05-20T20:53:49.900Z,98645.53
2023-05-20T20:56:17.445Z,98641.66
2023-05-20T20:58:44.877Z,98635.38
2023-05-20T21:01:12.100Z,98634.25
2023-05-20T21:03:39.947Z,98634.53
2023-05-20T21:06:07.692Z,98638.16
2023-05-20T21:08:39.249Z,98628.97
2023-05-20T21:11:05.869Z,98627.00
2023-05-20T21:13:32.400Z,98616.53
2023-05-20T21:15:58.965Z,98613.88
2023-05-20T21:18:25.609Z,98620.28
2023-05-20T21:20:54.278Z,98607.94
2023-05-20T21:23:22.319Z,98611.13
2023-05-20T21:25:52.253Z,98607.75
2023-05-20T21:28:18.945Z,98606.59
2023-05-20T21:30:45.520Z,98610.66
2023-05-20T21:33:12.184Z,98603.69
2023-05-20T21:35:38.790Z,98601.50
2023-05-20T21:38:05.416Z,98597.59
2023-05-20T21:40:32.031Z,98596.66
2023-05-20T21:42:58.589Z,98589.22
2023-05-20T21:45:25.119Z,98585.56
2023-05-20T21:47:51.780Z,98585.69
2023-05-20T21:50:18.325Z,98583.22
2023-05-20T21:52:44.902Z,98578.91
2023-05-20T21:55:11.528Z,98581.66
2023-05-20T21:57:38.163Z,98579.22
2023-05-20T22:00:15.198Z,98577.22
2023-05-20T22:02:41.826Z,98579.75
2023-05-20T22:05:09.237Z,98579.31
2023-05-20T22:07:35.779Z,98571.59
2023-05-20T22:10:02.385Z,98565.72
2023-05-20T22:12:29.222Z,98575.50
2023-05-20T22:14:56.046Z,98568.75
2023-05-20T22:17:30.069Z,98561.22
2023-05-20T22:19:56.587Z,98563.06
2023-05-20T22:22:32.315Z,98563.19
2023-05-20T22:24:58.845Z,98566.06
2023-05-20T22:27:25.385Z,98557.72
2023-05-20T22:29:52.080Z,98557.47
2023-05-20T22:32:18.698Z,98557.97
2023-05-20T22:34:45.272Z,98550.59
2023-05-20T22:37:12.076Z,98558.16
2023-05-20T22:39:39.073Z,98554.97
2023-05-20T22:42:08.292Z,98549.41
2023-05-20T22:44:34.828Z,98548.72
2023-05-20T22:47:01.304Z,98541.28
2023-05-20T22:49:28.346Z,98533.09
2023-05-20T22:51:54.878Z,98534.25
2023-05-20T22:54:21.417Z,98530.34
2023-05-20T22:56:57.768Z,98530.41
2023-05-20T22:59:24.914Z,98530.41
2023-05-20T23:01:51.962Z,98529.41
2023-05-20T23:04:19.082Z,98520.63
2023-05-20T23:06:45.692Z,98522.94
2023-05-20T23:09:13.256Z,98514.25
2023-05-20T23:11:45.023Z,98518.44
2023-05-20T23:14:11.949Z,98515.31
2023-05-20T23:16:42.781Z,98507.34
2023-05-20T23:19:09.469Z,98508.16
2023-05-20T23:21:37.296Z,98503.84
2023-05-20T23:24:05.361Z,98503.34
2023-05-20T23:26:34.365Z,98508.00
2023-05-20T23:29:01.414Z,98504.03
2023-05-20T23:31:29.786Z,98499.13
2023-05-20T23:33:59.727Z,98500.72
2023-05-20T23:36:26.618Z,98503.06
2023-05-20T23:38:53.133Z,98499.72
2023-05-20T23:41:19.763Z,98489.81
2023-05-20T23:43:46.331Z,98489.38
2023-05-20T23:46:12.977Z,98497.91
2023-05-20T23:48:40.708Z,98495.34
2023-05-20T23:51:09.943Z,98484.47
2023-05-20T23:53:36.583Z,98488.78
2023-05-20T23:56:04.127Z,98481.84
2023-05-20T23:58:30.648Z,98478.69
